Time;durP1;ratioP1;P1;durP2;ratioP2;P2;SDS_P1;SDS_P2;PMS_P1;PMS_P2;Temp;Humidity;BMP_temperature;BMP_pressure;BME280_temperature;BME280_humidity;BME280_pressure;Samples;Min_cycle;Max_cycle;Signal;HPM_P1;HPM_P2
2023/08/28 00:02:02;;;;;;;800.57;748.87;;;11.80;99.90;;;;;;5013558;28;20457;-69
2023/08/28 00:04:29;;;;;;;812.50;760.13;;;11.80;99.90;;;;;;5012966;28;20537;-69
2023/08/28 00:06:56;;;;;;;806.00;753.83;;;11.90;99.90;;;;;;5013344;28;20532;-70
2023/08/28 00:09:23;;;;;;;828.93;775.63;;;11.90;99.90;;;;;;5013697;28;20864;-69
2023/08/28 00:11:50;;;;;;;810.60;758.17;;;11.90;99.90;;;;;;5013256;28;20480;-69
2023/08/28 00:14:17;;;;;;;797.07;746.17;;;11.80;99.90;;;;;;5013680;28;20881;-69
2023/08/28 00:16:45;;;;;;;815.23;763.70;;;11.80;99.90;;;;;;5013068;28;20449;-69
2023/08/28 00:19:13;;;;;;;825.03;771.10;;;11.70;99.90;;;;;;5013335;28;20452;-69
2023/08/28 00:21:40;;;;;;;836.30;779.80;;;11.70;99.90;;;;;;5013267;28;20549;-69
2023/08/28 00:24:07;;;;;;;856.37;798.17;;;11.70;99.90;;;;;;5013171;28;20956;-69
2023/08/28 00:26:34;;;;;;;834.70;778.37;;;11.60;99.90;;;;;;5013155;28;20470;-69
2023/08/28 00:29:01;;;;;;;858.70;800.50;;;11.60;99.90;;;;;;5013499;28;20605;-69
2023/08/28 00:31:29;;;;;;;866.17;807.27;;;11.50;99.90;;;;;;5012932;28;20457;-69
2023/08/28 00:33:57;;;;;;;876.80;816.70;;;11.40;99.90;;;;;;5012944;28;20548;-69
2023/08/28 00:36:24;;;;;;;870.13;810.83;;;11.40;99.90;;;;;;5013062;28;20454;-69
2023/08/28 00:38:51;;;;;;;882.70;821.30;;;11.30;99.90;;;;;;5013108;28;20473;-69
2023/08/28 00:41:18;;;;;;;901.87;836.80;;;11.30;99.90;;;;;;5013011;28;20457;-69
2023/08/28 00:43:45;;;;;;;906.80;841.93;;;11.50;99.90;;;;;;5012709;28;21007;-69
2023/08/28 00:46:12;;;;;;;922.80;858.53;;;11.50;99.90;;;;;;5012569;28;20450;-69
2023/08/28 00:48:39;;;;;;;906.07;842.90;;;11.50;99.90;;;;;;5012788;28;20480;-69
2023/08/28 00:51:08;;;;;;;885.97;824.87;;;11.50;99.90;;;;;;5012890;28;20453;-69
2023/08/28 00:53:36;;;;;;;901.67;837.80;;;11.40;99.90;;;;;;5012735;28;20489;-69
2023/08/28 00:56:03;;;;;;;909.47;845.50;;;11.40;99.90;;;;;;5012451;28;20516;-69
2023/08/28 00:58:30;;;;;;;903.97;839.70;;;11.50;99.90;;;;;;5012562;28;20488;-69
2023/08/28 01:00:56;;;;;;;900.77;837.40;;;11.60;99.90;;;;;;5012501;28;20453;-68
2023/08/28 01:03:23;;;;;;;883.17;822.37;;;11.60;99.90;;;;;;5012760;28;20540;-68
2023/08/28 01:06:00;;;;;;;876.83;816.40;;;11.60;99.90;;;;;;5012419;28;20503;-68
2023/08/28 01:08:36;;;;;;;875.47;815.57;;;11.60;99.90;;;;;;5012438;28;20473;-69
2023/08/28 01:11:14;;;;;;;888.23;828.73;;;11.50;99.90;;;;;;5012255;28;21019;-69
2023/08/28 01:13:47;;;;;;;880.80;821.60;;;11.50;99.90;;;;;;5003390;28;20513;-69
2023/08/28 01:16:16;;;;;;;876.47;818.17;;;11.40;99.90;;;;;;4996773;28;20636;-69
2023/08/28 01:18:44;;;;;;;857.40;801.20;;;11.40;99.90;;;;;;4993324;28;20546;-69
2023/08/28 01:21:11;;;;;;;855.90;800.27;;;11.30;99.90;;;;;;5012548;28;20540;-69
2023/08/28 01:23:44;;;;;;;883.80;825.20;;;11.10;99.90;;;;;;5012074;28;20991;-69
2023/08/28 01:26:13;;;;;;;878.13;818.47;;;11.20;99.90;;;;;;5012055;28;20536;-69
2023/08/28 01:28:40;;;;;;;878.10;817.03;;;11.20;99.90;;;;;;5011701;28;20560;-69
2023/08/28 01:31:07;;;;;;;872.43;811.83;;;11.30;99.90;;;;;;5011766;28;20465;-69
2023/08/28 01:33:35;;;;;;;880.27;819.67;;;11.30;99.90;;;;;;5011748;28;20475;-69
2023/08/28 01:36:11;;;;;;;876.10;817.03;;;11.30;99.90;;;;;;5011620;28;20970;-69
2023/08/28 01:38:46;;;;;;;866.80;807.50;;;11.20;99.90;;;;;;5012321;28;20441;-69
2023/08/28 01:41:19;;;;;;;874.30;814.70;;;11.20;99.90;;;;;;5011766;28;20540;-69
2023/08/28 01:43:49;;;;;;;886.90;826.03;;;11.10;99.90;;;;;;5012291;28;20534;-69
2023/08/28 01:46:18;;;;;;;887.53;826.83;;;11.10;99.90;;;;;;4997151;28;20876;-69
2023/08/28 01:48:45;;;;;;;865.40;805.93;;;11.10;99.90;;;;;;5011698;28;20484;-69
2023/08/28 01:51:12;;;;;;;849.17;791.67;;;11.00;99.90;;;;;;5011612;28;20892;-69
2023/08/28 01:53:39;;;;;;;869.57;810.57;;;10.90;99.90;;;;;;5011750;28;20485;-68
2023/08/28 01:56:25;;;;;;;898.43;838.33;;;10.80;99.90;;;;;;5011232;28;20937;-69
2023/08/28 01:58:54;;;;;;;893.30;833.27;;;10.70;99.90;;;;;;5011694;28;20477;-69
2023/08/28 02:01:22;;;;;;;904.53;841.20;;;10.70;99.90;;;;;;5011027;28;20476;-69
2023/08/28 02:03:49;;;;;;;896.33;832.53;;;10.60;99.90;;;;;;5009539;28;20486;-69
2023/08/28 02:06:17;;;;;;;900.80;837.47;;;10.60;99.90;;;;;;5011608;28;20532;-68
2023/08/28 02:08:44;;;;;;;902.33;839.90;;;10.50;99.90;;;;;;5011262;28;20556;-69
2023/08/28 02:11:11;;;;;;;884.77;822.53;;;10.40;99.90;;;;;;5011778;28;20540;-69
2023/08/28 02:13:40;;;;;;;894.90;831.40;;;10.30;99.90;;;;;;5011684;28;20452;-69
2023/08/28 02:16:07;;;;;;;915.27;849.33;;;10.20;99.90;;;;;;5011210;28;21019;-69
2023/08/28 02:18:34;;;;;;;914.00;847.80;;;10.20;99.90;;;;;;5011616;28;20452;-69
2023/08/28 02:21:01;;;;;;;937.80;866.87;;;10.30;99.90;;;;;;5011256;28;20784;-69
2023/08/28 02:23:28;;;;;;;948.63;874.27;;;10.40;99.90;;;;;;5012112;28;20535;-69
2023/08/28 02:25:56;;;;;;;936.00;863.37;;;10.60;99.90;;;;;;5011380;28;20535;-68
2023/08/28 02:28:23;;;;;;;924.73;853.33;;;10.70;99.90;;;;;;5014733;28;20477;-68
2023/08/28 02:30:51;;;;;;;928.30;858.07;;;10.70;99.90;;;;;;5014972;28;20544;-68
2023/08/28 02:33:18;;;;;;;937.10;866.07;;;10.60;99.90;;;;;;5015081;28;20456;-68
2023/08/28 02:35:45;;;;;;;944.63;872.27;;;10.70;99.90;;;;;;5014904;28;20453;-68
2023/08/28 02:38:12;;;;;;;940.80;868.23;;;10.80;99.90;;;;;;5015221;28;20450;-68
2023/08/28 02:40:40;;;;;;;920.87;849.83;;;10.90;99.90;;;;;;5015577;28;20944;-68
2023/08/28 02:43:09;;;;;;;918.23;847.57;;;10.90;99.90;;;;;;5014816;28;20449;-68
2023/08/28 02:45:36;;;;;;;930.27;860.37;;;10.90;99.90;;;;;;5015015;28;20448;-68
2023/08/28 02:48:05;;;;;;;920.93;852.27;;;10.90;99.90;;;;;;5014570;28;20561;-68
2023/08/28 02:50:32;;;;;;;937.63;869.00;;;10.80;99.90;;;;;;5015465;28;20453;-68
2023/08/28 02:52:59;;;;;;;932.57;863.37;;;10.70;99.90;;;;;;5014922;28;20457;-68
2023/08/28 02:55:26;;;;;;;928.97;858.90;;;10.70;99.90;;;;;;5015078;28;20560;-68
2023/08/28 02:57:53;;;;;;;934.83;866.50;;;10.70;99.90;;;;;;5014611;28;20971;-68
2023/08/28 03:00:20;;;;;;;916.80;850.93;;;10.60;99.90;;;;;;5014896;28;20864;-68
2023/08/28 03:02:47;;;;;;;926.50;859.03;;;10.50;99.90;;;;;;5014553;28;20453;-68
2023/08/28 03:05:17;;;;;;;935.63;865.63;;;10.40;99.90;;;;;;5014776;28;20889;-68
2023/08/28 03:07:43;;;;;;;941.00;869.90;;;10.50;99.90;;;;;;5014744;28;20507;-68
2023/08/28 03:10:10;;;;;;;925.00;854.67;;;10.50;99.90;;;;;;5014657;28;20541;-68
2023/08/28 03:12:38;;;;;;;929.20;858.20;;;10.40;99.90;;;;;;5014657;28;20480;-68
2023/08/28 03:15:05;;;;;;;934.43;863.87;;;10.40;99.90;;;;;;5014122;28;20940;-68
2023/08/28 03:17:32;;;;;;;944.00;872.20;;;10.40;99.90;;;;;;5014590;28;20457;-67
2023/08/28 03:19:59;;;;;;;941.33;869.90;;;10.40;99.90;;;;;;5014577;28;20528;-67
2023/08/28 03:22:28;;;;;;;936.97;863.47;;;10.40;99.90;;;;;;5014576;28;20456;-67
2023/08/28 03:24:54;;;;;;;944.27;871.17;;;10.30;99.90;;;;;;5014321;28;20496;-68
2023/08/28 03:27:22;;;;;;;950.00;877.13;;;10.30;99.90;;;;;;5014611;28;20460;-68
2023/08/28 03:29:49;;;;;;;955.73;882.03;;;10.30;99.90;;;;;;5013417;28;20513;-68
2023/08/28 03:32:15;;;;;;;941.47;867.77;;;10.20;99.90;;;;;;5014199;28;20535;-67
2023/08/28 03:34:42;;;;;;;946.70;872.70;;;10.20;99.90;;;;;;5013695;28;20457;-67
2023/08/28 03:37:09;;;;;;;932.03;857.57;;;10.20;99.90;;;;;;5014291;28;20823;-67
2023/08/28 03:39:38;;;;;;;954.37;878.63;;;10.30;99.90;;;;;;5013028;28;20481;-68
2023/08/28 03:42:05;;;;;;;959.37;882.47;;;10.30;99.90;;;;;;5014222;28;20504;-68
2023/08/28 03:44:31;;;;;;;954.67;878.27;;;10.30;99.90;;;;;;5013502;28;20548;-68
2023/08/28 03:46:58;;;;;;;955.33;878.17;;;10.20;99.90;;;;;;5013980;28;21013;-68
2023/08/28 03:49:27;;;;;;;961.97;883.37;;;10.20;99.90;;;;;;5013832;28;20567;-67
2023/08/28 03:51:54;;;;;;;955.20;875.57;;;10.20;99.90;;;;;;5013406;28;20450;-68
2023/08/28 03:54:22;;;;;;;954.90;874.30;;;10.20;99.90;;;;;;4994436;28;20454;-68
2023/08/28 03:56:50;;;;;;;954.50;873.50;;;10.30;99.90;;;;;;5013663;28;20944;-68
2023/08/28 03:59:17;;;;;;;942.63;862.80;;;10.30;99.90;;;;;;5013991;28;20477;-68
2023/08/28 04:01:44;;;;;;;945.87;866.87;;;10.30;99.90;;;;;;5013362;28;20488;-68
2023/08/28 04:04:12;;;;;;;946.20;868.50;;;10.30;99.90;;;;;;5013300;28;20829;-68
2023/08/28 04:06:38;;;;;;;945.53;869.33;;;10.30;99.90;;;;;;5014030;28;20881;-68
2023/08/28 04:09:06;;;;;;;957.70;882.50;;;10.20;99.90;;;;;;5013603;28;20565;-68
2023/08/28 04:11:33;;;;;;;948.07;872.20;;;10.10;99.90;;;;;;5013106;28;20472;-68
2023/08/28 04:14:01;;;;;;;948.80;870.40;;;10.00;99.90;;;;;;5013342;28;20532;-68
2023/08/28 04:16:28;;;;;;;945.77;866.17;;;10.00;99.90;;;;;;5013428;28;20456;-68
2023/08/28 04:18:55;;;;;;;967.37;888.30;;;10.00;99.90;;;;;;5013172;28;20544;-68
2023/08/28 04:21:22;;;;;;;953.13;874.63;;;9.90;99.90;;;;;;5012918;28;20450;-69
2023/08/28 04:23:49;;;;;;;956.67;877.37;;;9.90;99.90;;;;;;5012888;28;20565;-69
2023/08/28 04:26:16;;;;;;;964.23;881.33;;;9.80;99.90;;;;;;5012781;28;20458;-68
2023/08/28 04:28:43;;;;;;;964.70;880.93;;;9.80;99.90;;;;;;5012889;28;20473;-69
2023/08/28 04:31:12;;;;;;;957.13;872.63;;;9.80;99.90;;;;;;5012502;28;20875;-69
2023/08/28 04:33:39;;;;;;;955.70;871.00;;;9.90;99.90;;;;;;5011621;28;20739;-69
2023/08/28 04:36:08;;;;;;;950.70;867.83;;;10.00;99.90;;;;;;5009473;28;20895;-69
2023/08/28 04:38:34;;;;;;;958.37;875.07;;;10.00;99.90;;;;;;4993524;28;20457;-68
2023/08/28 04:41:01;;;;;;;943.77;860.57;;;10.00;99.90;;;;;;5000667;28;20723;-69
2023/08/28 04:43:28;;;;;;;942.67;859.30;;;10.10;99.90;;;;;;5008136;28;20505;-69
2023/08/28 04:45:55;;;;;;;945.93;863.23;;;10.10;99.90;;;;;;5012071;28;20460;-69
2023/08/28 04:48:24;;;;;;;936.67;852.93;;;10.10;99.90;;;;;;5012354;28;20454;-68
2023/08/28 04:50:50;;;;;;;938.00;854.50;;;10.20;99.90;;;;;;5012873;28;20457;-68
2023/08/28 04:53:17;;;;;;;950.97;866.90;;;10.20;99.90;;;;;;5012707;28;20949;-68
2023/08/28 04:55:44;;;;;;;948.50;865.27;;;10.30;99.90;;;;;;5012608;28;20536;-69
2023/08/28 04:58:11;;;;;;;967.77;883.70;;;10.20;99.90;;;;;;5012946;28;20544;-68
2023/08/28 05:00:38;;;;;;;946.47;863.37;;;10.20;99.90;;;;;;5012322;28;20446;-67
2023/08/28 05:03:06;;;;;;;946.50;863.80;;;10.30;99.90;;;;;;5012764;28;20540;-68
2023/08/28 05:05:35;;;;;;;946.87;862.60;;;10.30;99.90;;;;;;5012502;28;20810;-68
2023/08/28 05:08:02;;;;;;;945.67;860.67;;;10.50;99.90;;;;;;5013044;28;20458;-68
2023/08/28 05:10:28;;;;;;;942.43;857.80;;;10.60;99.90;;;;;;5012934;28;20481;-68
2023/08/28 05:12:55;;;;;;;928.83;846.37;;;10.70;99.90;;;;;;5012988;28;20450;-68
2023/08/28 05:15:22;;;;;;;928.83;847.37;;;10.80;99.90;;;;;;5012294;28;20869;-69
2023/08/28 05:17:49;;;;;;;929.77;847.93;;;10.80;99.90;;;;;;5012212;28;20453;-68
2023/08/28 05:20:16;;;;;;;934.40;853.07;;;10.80;99.90;;;;;;5002350;28;20501;-68
2023/08/28 05:22:47;;;;;;;943.07;862.83;;;10.80;99.90;;;;;;5008582;28;20453;-68
2023/08/28 05:25:14;;;;;;;914.10;835.70;;;10.80;99.90;;;;;;5011770;28;20554;-68
2023/08/28 05:27:41;;;;;;;916.83;841.93;;;10.80;99.90;;;;;;5011930;28;20512;-68
2023/08/28 05:30:08;;;;;;;923.33;849.67;;;10.90;99.90;;;;;;5011998;28;20516;-68
2023/08/28 05:32:35;;;;;;;925.50;853.10;;;10.90;99.90;;;;;;5012555;28;20481;-68
2023/08/28 05:35:03;;;;;;;929.60;857.30;;;10.90;99.90;;;;;;5011638;28;20541;-68
2023/08/28 05:37:30;;;;;;;940.90;868.87;;;11.00;99.90;;;;;;5012455;28;20540;-68
2023/08/28 05:39:58;;;;;;;944.20;872.07;;;11.00;99.90;;;;;;5012751;28;20449;-68
2023/08/28 05:42:25;;;;;;;933.93;860.83;;;11.10;99.90;;;;;;5012438;28;20497;-68
2023/08/28 05:44:52;;;;;;;920.23;846.57;;;11.20;99.90;;;;;;5012118;28;20873;-68
2023/08/28 05:47:19;;;;;;;924.67;850.73;;;11.40;99.90;;;;;;5010799;28;20459;-68
2023/08/28 05:49:46;;;;;;;921.97;848.87;;;11.60;99.90;;;;;;5006662;28;20480;-68
2023/08/28 05:52:13;;;;;;;915.17;843.20;;;11.70;99.90;;;;;;5010445;28;20454;-68
2023/08/28 05:54:40;;;;;;;922.33;850.80;;;11.80;99.90;;;;;;5010759;28;20548;-68
2023/08/28 05:57:07;;;;;;;916.67;846.77;;;11.90;99.90;;;;;;5011048;28;20453;-68
2023/08/28 05:59:34;;;;;;;921.27;852.30;;;12.00;99.90;;;;;;5010407;28;20490;-68
2023/08/28 06:02:01;;;;;;;931.90;862.77;;;12.00;99.90;;;;;;5009680;28;20540;-69
2023/08/28 06:04:28;;;;;;;931.87;862.23;;;12.10;99.90;;;;;;5010361;28;20476;-68
2023/08/28 06:06:55;;;;;;;933.27;862.37;;;12.20;99.90;;;;;;5010327;28;20456;-68
2023/08/28 06:09:22;;;;;;;926.47;854.47;;;12.30;99.90;;;;;;5008584;28;20513;-68
2023/08/28 06:11:49;;;;;;;937.43;864.63;;;12.30;99.90;;;;;;5010598;28;20453;-67
2023/08/28 06:14:18;;;;;;;930.10;857.47;;;12.50;99.90;;;;;;5011101;28;20485;-68
2023/08/28 06:16:45;;;;;;;927.60;856.40;;;12.60;99.90;;;;;;5000698;28;20528;-68
2023/08/28 06:19:12;;;;;;;924.57;854.17;;;12.70;99.90;;;;;;5011024;28;20936;-68
2023/08/28 06:21:40;;;;;;;938.10;866.73;;;12.70;99.90;;;;;;5010935;28;20455;-68
2023/08/28 06:24:07;;;;;;;935.20;864.83;;;12.80;99.90;;;;;;5010081;28;20449;-68
2023/08/28 06:26:34;;;;;;;925.43;855.73;;;12.90;99.90;;;;;;5009096;28;20459;-68
2023/08/28 06:29:01;;;;;;;914.53;847.10;;;13.00;99.90;;;;;;5009728;28;20450;-68
2023/08/28 06:31:29;;;;;;;908.60;843.50;;;13.10;99.90;;;;;;5010683;28;20519;-68
2023/08/28 06:33:56;;;;;;;895.70;834.47;;;13.10;99.90;;;;;;5010899;28;20537;-68
2023/08/28 06:36:23;;;;;;;888.73;827.30;;;13.20;99.90;;;;;;5010275;28;20541;-69
2023/08/28 06:38:52;;;;;;;882.67;822.80;;;13.30;99.90;;;;;;5010723;28;20445;-68
2023/08/28 06:41:19;;;;;;;869.00;811.60;;;13.40;99.90;;;;;;5011319;28;20965;-68
2023/08/28 06:43:47;;;;;;;859.17;804.60;;;13.50;99.90;;;;;;5011378;28;20460;-68
2023/08/28 06:46:14;;;;;;;860.40;806.07;;;13.60;99.90;;;;;;5010609;28;20453;-68
2023/08/28 06:48:43;;;;;;;863.30;808.30;;;13.70;99.90;;;;;;5008955;28;20458;-68
2023/08/28 06:51:10;;;;;;;850.17;796.70;;;13.80;99.90;;;;;;5010379;28;20936;-68
2023/08/28 06:53:37;;;;;;;833.43;781.73;;;13.90;99.90;;;;;;5009809;28;20455;-68
2023/08/28 06:56:04;;;;;;;818.03;767.60;;;13.90;99.90;;;;;;5009771;28;21015;-68
2023/08/28 06:58:32;;;;;;;790.67;744.93;;;14.00;99.90;;;;;;5010728;28;20452;-68
2023/08/28 07:00:59;;;;;;;728.57;689.37;;;14.10;99.90;;;;;;5009661;28;21015;-68
2023/08/28 07:03:25;;;;;;;756.10;715.10;;;14.20;99.90;;;;;;5009838;28;20537;-68
2023/08/28 07:05:54;;;;;;;689.17;655.25;;;14.30;99.90;;;;;;5009708;28;20539;-70
2023/08/28 07:08:21;;;;;;;605.80;579.33;;;14.40;99.90;;;;;;5012286;28;20190;-70
2023/08/28 07:10:47;;;;;;;626.10;597.88;;;14.40;99.90;;;;;;5012903;28;20537;-70
2023/08/28 07:13:14;;;;;;;601.17;575.17;;;14.50;99.90;;;;;;5013158;28;20286;-70
2023/08/28 07:15:56;;;;;;;517.87;496.37;;;14.60;99.90;;;;;;5015702;28;20459;-70
2023/08/28 07:18:23;;;;;;;413.60;398.40;;;14.70;99.90;;;;;;5013877;28;20971;-70
2023/08/28 07:20:50;;;;;;;459.03;441.97;;;14.70;99.90;;;;;;5013955;28;20997;-70
2023/08/28 07:23:18;;;;;;;551.63;529.03;;;14.80;99.90;;;;;;5013443;28;20457;-70
2023/08/28 07:25:45;;;;;;;477.90;459.27;;;15.00;99.90;;;;;;5013692;28;20471;-70
2023/08/28 07:28:13;;;;;;;312.10;301.57;;;15.10;99.90;;;;;;5013751;28;20963;-70
2023/08/28 07:30:41;;;;;;;342.70;331.20;;;15.30;99.90;;;;;;5013776;28;20488;-70
2023/08/28 07:35:37;;;;;;;278.43;269.27;;;15.70;99.90;;;;;;5030968;28;20986;-63
2023/08/28 07:38:06;;;;;;;110.63;106.43;;;15.90;99.90;;;;;;5033041;28;20523;-63
2023/08/28 07:40:34;;;;;;;104.70;100.80;;;16.10;99.90;;;;;;5033030;28;20447;-62
2023/08/28 07:43:02;;;;;;;121.30;116.87;;;16.40;99.90;;;;;;5032486;28;20495;-62
2023/08/28 07:45:29;;;;;;;14.53;13.13;;;16.70;99.90;;;;;;5032457;28;20507;-63
2023/08/28 07:47:56;;;;;;;13.15;11.85;;;16.80;99.90;;;;;;5032783;28;20446;-65
2023/08/28 07:50:23;;;;;;;18.17;16.87;;;16.80;99.90;;;;;;5032558;28;20218;-64
2023/08/28 07:52:50;;;;;;;15.27;8.97;;;17.10;99.90;;;;;;5033284;28;20839;-65
2023/08/28 07:55:17;;;;;;;9.67;8.67;;;17.10;99.90;;;;;;5032734;28;20459;-65
2023/08/28 07:57:46;;;;;;;13.10;11.90;;;17.10;99.90;;;;;;5033072;28;20951;-65
2023/08/28 08:00:15;;;;;;;9.40;6.83;;;17.40;99.90;;;;;;5033316;28;20448;-65
2023/08/28 08:02:42;;;;;;;18.43;7.40;;;17.70;99.90;;;;;;5032846;28;20952;-65
2023/08/28 08:05:10;;;;;;;10.30;7.80;;;17.90;99.90;;;;;;5032488;28;20456;-65
2023/08/28 08:07:39;;;;;;;12.40;7.97;;;17.90;99.90;;;;;;5032687;28;20460;-64
2023/08/28 08:10:08;;;;;;;9.30;6.90;;;17.90;99.90;;;;;;5031807;28;20897;-65
2023/08/28 08:12:34;;;;;;;10.47;7.07;;;18.20;99.90;;;;;;5032640;28;20452;-65
2023/08/28 08:15:06;;;;;;;17.83;9.00;;;18.30;99.90;;;;;;5031927;28;20812;-64
2023/08/28 08:17:33;;;;;;;11.67;7.87;;;18.20;99.90;;;;;;5032355;28;20514;-65
2023/08/28 08:20:00;;;;;;;15.90;8.20;;;18.50;99.90;;;;;;5032881;28;20483;-65
2023/08/28 08:22:26;;;;;;;13.27;7.10;;;18.70;99.90;;;;;;5032594;28;20456;-65
2023/08/28 08:24:53;;;;;;;13.40;7.33;;;18.90;99.90;;;;;;5031676;28;20543;-64
2023/08/28 08:27:20;;;;;;;9.83;5.07;;;19.00;99.90;;;;;;5031800;28;20539;-65
2023/08/28 08:29:48;;;;;;;12.20;6.60;;;19.20;99.90;;;;;;5032435;28;20476;-65
2023/08/28 08:32:17;;;;;;;13.40;8.63;;;19.30;99.90;;;;;;5032266;28;20456;-64
2023/08/28 08:34:45;;;;;;;11.47;6.20;;;19.20;99.90;;;;;;5032309;28;20456;-64
2023/08/28 08:37:12;;;;;;;12.00;5.93;;;19.40;99.90;;;;;;5032429;28;20460;-64
2023/08/28 08:39:39;;;;;;;10.40;4.40;;;19.70;98.40;;;;;;5032274;28;20543;-64
2023/08/28 08:42:06;;;;;;;11.60;4.90;;;20.10;98.40;;;;;;5032101;28;20453;-64
2023/08/28 08:44:33;;;;;;;8.10;4.80;;;20.70;95.40;;;;;;5031915;28;20455;-64
2023/08/28 08:47:03;;;;;;;13.03;5.97;;;21.00;92.10;;;;;;5032350;28;20449;-64
2023/08/28 08:49:33;;;;;;;10.30;5.30;;;21.10;90.70;;;;;;5032221;28;20455;-64
2023/08/28 08:52:03;;;;;;;9.37;4.50;;;21.00;92.40;;;;;;5032132;28;20523;-64
2023/08/28 08:54:36;;;;;;;6.43;3.93;;;21.70;91.00;;;;;;5031988;28;20543;-63
2023/08/28 08:57:09;;;;;;;8.47;4.53;;;22.10;88.00;;;;;;5032215;28;20991;-63
2023/08/28 08:59:39;;;;;;;7.37;3.80;;;22.00;80.00;;;;;;5031989;28;20456;-63
2023/08/28 09:02:09;;;;;;;7.90;3.57;;;21.90;73.50;;;;;;5031772;28;20874;-63
2023/08/28 09:04:38;;;;;;;11.63;3.93;;;22.10;75.80;;;;;;5030690;28;20951;-63
2023/08/28 09:07:06;;;;;;;10.37;4.80;;;21.90;71.90;;;;;;5031051;28;20506;-63
2023/08/28 09:09:33;;;;;;;8.17;3.80;;;22.10;78.10;;;;;;5031324;28;20962;-63
2023/08/28 09:12:00;;;;;;;12.03;4.50;;;22.70;75.70;;;;;;5031137;28;20472;-63
2023/08/28 09:14:28;;;;;;;7.00;3.20;;;23.00;72.80;;;;;;5031139;28;20479;-63
2023/08/28 09:16:55;;;;;;;7.07;3.17;;;23.10;71.40;;;;;;5031568;28;20506;-63
2023/08/28 09:19:22;;;;;;;7.70;2.93;;;23.30;68.80;;;;;;5031601;28;20950;-63
2023/08/28 09:21:51;;;;;;;5.70;2.50;;;23.10;64.70;;;;;;5031679;28;20523;-63
2023/08/28 09:24:23;;;;;;;6.70;3.33;;;22.90;64.50;;;;;;5031291;28;20458;-64
2023/08/28 09:26:53;;;;;;;7.93;3.07;;;22.50;59.20;;;;;;5030977;28;20815;-64
2023/08/28 09:29:23;;;;;;;9.30;3.83;;;22.60;64.30;;;;;;5031413;28;20457;-64
2023/08/28 09:31:51;;;;;;;5.50;2.60;;;23.00;64.60;;;;;;5031560;28;20842;-64
2023/08/28 09:34:19;;;;;;;7.47;3.30;;;22.60;64.20;;;;;;5030981;28;21023;-64
2023/08/28 09:36:47;;;;;;;7.50;3.23;;;22.50;64.10;;;;;;5030325;28;20480;-63
2023/08/28 09:39:15;;;;;;;7.00;3.70;;;22.30;63.90;;;;;;5030523;28;20890;-64
2023/08/28 09:41:44;;;;;;;8.93;3.53;;;21.70;63.40;;;;;;5030639;28;20510;-64
2023/08/28 09:44:12;;;;;;;7.83;3.37;;;21.50;66.10;;;;;;5031168;28;20453;-64
2023/08/28 09:46:39;;;;;;;9.77;3.70;;;21.40;71.40;;;;;;5030163;28;20974;-64
2023/08/28 09:49:06;;;;;;;7.90;3.70;;;21.30;71.30;;;;;;5031204;28;20555;-64
2023/08/28 09:51:44;;;;;;;8.70;3.80;;;20.90;70.90;;;;;;5031243;28;20489;-64
2023/08/28 09:54:13;;;;;;;6.70;3.20;;;20.90;70.90;;;;;;5031240;28;20547;-64
2023/08/28 09:56:42;;;;;;;9.53;2.90;;;20.80;70.80;;;;;;5031363;28;20530;-64
2023/08/28 09:59:11;;;;;;;13.07;2.40;;;20.90;70.90;;;;;;5031559;28;20448;-64
2023/08/28 10:01:39;;;;;;;6.60;2.60;;;20.80;70.80;;;;;;5031639;28;20558;-64
2023/08/28 10:04:07;;;;;;;7.57;2.80;;;21.00;71.00;;;;;;5031236;28;20485;-63
2023/08/28 10:06:36;;;;;;;7.03;3.10;;;20.80;70.80;;;;;;5030902;28;20455;-64
2023/08/28 10:09:05;;;;;;;5.50;2.13;;;20.90;70.90;;;;;;5031343;28;20449;-63
2023/08/28 10:11:37;;;;;;;5.80;2.40;;;20.50;70.50;;;;;;5030298;28;20476;-64
2023/08/28 10:14:07;;;;;;;8.77;3.00;;;20.60;70.60;;;;;;5031224;28;20455;-64
2023/08/28 10:16:37;;;;;;;5.40;2.40;;;21.00;71.00;;;;;;5031006;28;20816;-63
2023/08/28 10:19:12;;;;;;;10.60;2.80;;;20.90;70.90;;;;;;5030984;28;20457;-64
2023/08/28 10:21:40;;;;;;;5.60;2.63;;;21.10;71.10;;;;;;5030658;28;20538;-64
2023/08/28 10:24:08;;;;;;;6.37;2.10;;;20.90;70.90;;;;;;5030782;28;20531;-64
2023/08/28 10:26:36;;;;;;;7.43;1.80;;;21.10;68.00;;;;;;5031197;28;20531;-63
2023/08/28 10:29:07;;;;;;;5.30;2.00;;;20.90;69.60;;;;;;5030037;28;20539;-64
2023/08/28 10:31:35;;;;;;;6.63;2.50;;;21.30;71.30;;;;;;5030723;28;20562;-64
2023/08/28 10:34:04;;;;;;;6.70;2.33;;;21.60;71.60;;;;;;5030234;28;20547;-64
2023/08/28 10:36:32;;;;;;;7.83;2.27;;;21.40;63.10;;;;;;5030774;28;20995;-63
2023/08/28 10:39:02;;;;;;;6.70;2.53;;;21.30;70.30;;;;;;5030917;28;20552;-64
2023/08/28 10:41:30;;;;;;;9.00;2.90;;;21.30;67.80;;;;;;5030366;28;20448;-64
2023/08/28 10:43:58;;;;;;;7.33;2.77;;;21.80;63.50;;;;;;5030164;28;20456;-65
2023/08/28 10:46:28;;;;;;;7.60;2.43;;;22.20;63.80;;;;;;5028302;28;20452;-65
2023/08/28 10:48:59;;;;;;;5.47;1.80;;;22.40;62.70;;;;;;5032383;28;20530;-65
2023/08/28 10:51:32;;;;;;;8.40;2.50;;;21.80;54.90;;;;;;5033589;28;20999;-65
2023/08/28 10:54:04;;;;;;;6.60;3.43;;;21.90;59.40;;;;;;5033536;28;20459;-65
2023/08/28 10:56:32;;;;;;;8.00;2.77;;;21.80;63.50;;;;;;5033822;28;20985;-65
2023/08/28 10:59:24;;;;;;;6.30;2.17;;;21.80;63.50;;;;;;5033436;28;20456;-65
2023/08/28 11:01:57;;;;;;;8.10;3.00;;;22.40;55.50;;;;;;5032944;28;20531;-65
2023/08/28 11:04:25;;;;;;;9.07;3.60;;;23.30;56.30;;;;;;5031708;28;20531;-64
2023/08/28 11:06:52;;;;;;;8.03;3.67;;;23.30;56.30;;;;;;5032958;28;20456;-64
2023/08/28 11:09:39;;;;;;;6.30;2.60;;;23.40;47.60;;;;;;5033131;28;20531;-65
2023/08/28 11:12:27;;;;;;;8.43;2.80;;;24.30;48.40;;;;;;5032225;28;20512;-64
2023/08/28 11:14:59;;;;;;;6.53;1.93;;;24.60;47.00;;;;;;5033453;28;20453;-64
2023/08/28 11:17:30;;;;;;;7.63;2.33;;;24.60;30.30;;;;;;5033928;28;20448;-65
2023/08/28 11:20:11;;;;;;;5.40;1.80;;;25.00;23.80;;;;;;5033351;28;20480;-65
2023/08/28 11:22:39;;;;;;;5.43;2.20;;;25.70;23.70;;;;;;5033766;28;20449;-65
2023/08/28 11:25:08;;;;;;;4.93;1.87;;;25.60;23.70;;;;;;5033314;28;20544;-64
2023/08/28 11:27:43;;;;;;;5.27;1.60;;;26.20;18.50;;;;;;5032763;28;20455;-63
2023/08/28 11:30:11;;;;;;;4.77;1.77;;;25.80;20.30;;;;;;5032578;28;20461;-64
2023/08/28 11:32:41;;;;;;;7.00;2.37;;;25.90;16.30;;;;;;5032564;28;20670;-64
2023/08/28 11:35:09;;;;;;;5.43;1.80;;;25.90;16.30;;;;;;5033844;28;20546;-64
2023/08/28 11:37:39;;;;;;;4.90;1.50;;;26.00;11.60;;;;;;5034044;28;20804;-64
2023/08/28 11:40:08;;;;;;;4.70;1.60;;;25.50;8.40;;;;;;5034046;28;20481;-64
2023/08/28 11:42:35;;;;;;;5.63;1.67;;;25.80;15.40;;;;;;5033529;28;20477;-64
2023/08/28 11:45:04;;;;;;;5.00;1.37;;;25.60;16.00;;;;;;5033365;28;20960;-65
2023/08/28 11:47:33;;;;;;;5.37;1.80;;;24.90;12.00;;;;;;5034020;28;20540;-64
2023/08/28 11:50:03;;;;;;;6.40;2.03;;;24.70;15.60;;;;;;5034095;28;20456;-64
2023/08/28 11:52:30;;;;;;;6.93;2.50;;;25.10;17.60;;;;;;5033854;28;20488;-64
2023/08/28 11:55:03;;;;;;;10.10;2.80;;;25.40;16.00;;;;;;5033677;28;20883;-64
2023/08/28 11:57:30;;;;;;;5.10;2.10;;;25.10;15.80;;;;;;5033873;28;20488;-64
2023/08/28 11:59:59;;;;;;;5.30;1.80;;;25.30;16.00;;;;;;5033330;28;20812;-64
2023/08/28 12:02:26;;;;;;;8.80;2.10;;;24.80;15.60;;;;;;5033469;28;20455;-64
2023/08/28 12:04:53;;;;;;;5.00;1.67;;;25.10;15.90;;;;;;5033464;28;20555;-64
2023/08/28 12:07:23;;;;;;;6.13;2.13;;;25.30;16.00;;;;;;5033269;28;20478;-64
2023/08/28 12:09:52;;;;;;;6.27;1.60;;;25.50;13.00;;;;;;5033258;28;21003;-64
2023/08/28 12:12:20;;;;;;;7.70;1.73;;;25.80;10.60;;;;;;5033241;28;20477;-64
2023/08/28 12:14:49;;;;;;;6.03;2.20;;;25.20;15.90;;;;;;5032315;28;20484;-64
2023/08/28 12:17:17;;;;;;;5.20;1.93;;;24.80;15.60;;;;;;5032942;28;20455;-64
2023/08/28 12:19:44;;;;;;;6.00;1.93;;;24.20;20.30;;;;;;5032856;28;20457;-64
2023/08/28 12:22:13;;;;;;;6.70;2.10;;;23.80;18.80;;;;;;5033426;28;20836;-64
2023/08/28 12:24:42;;;;;;;6.33;1.90;;;23.90;18.90;;;;;;5032997;28;20951;-64
2023/08/28 12:27:10;;;;;;;7.30;1.97;;;24.20;15.20;;;;;;5033424;28;20455;-64
2023/08/28 12:29:38;;;;;;;6.20;2.30;;;23.90;16.60;;;;;;5032918;28;20491;-64